Time;durP1;ratioP1;P1;durP2;ratioP2;P2;SDS_P1;SDS_P2;PMS_P1;PMS_P2;Temp;Humidity;BMP_temperature;BMP_pressure;BME280_temperature;BME280_humidity;BME280_pressure;Samples;Min_cycle;Max_cycle;Signal;HPM_P1;HPM_P2
2021/10/23 00:00:37;;;;;;;0.40;0.30;;;7.10;99.90;;;;;;4936632;29;20447;-82
2021/10/23 00:03:05;;;;;;;0.40;0.30;;;7.10;99.90;;;;;;4936463;29;20843;-83
2021/10/23 00:05:32;;;;;;;0.50;0.47;;;7.10;99.90;;;;;;4936210;29;20940;-82
2021/10/23 00:07:59;;;;;;;0.30;0.30;;;7.10;99.90;;;;;;4935964;29;20782;-82
2021/10/23 00:10:26;;;;;;;0.30;0.30;;;7.10;99.90;;;;;;4936256;29;20490;-82
2021/10/23 00:12:53;;;;;;;0.40;0.37;;;7.20;99.90;;;;;;4936001;29;20478;-82
2021/10/23 00:15:20;;;;;;;0.30;0.20;;;7.20;99.90;;;;;;4938169;29;20463;-95
2021/10/23 00:17:47;;;;;;;0.30;0.20;;;7.30;99.90;;;;;;4938579;29;20486;-96
2021/10/23 00:20:15;;;;;;;0.30;0.20;;;7.20;99.90;;;;;;4938721;29;20928;-95
2021/10/23 00:22:42;;;;;;;0.30;0.20;;;7.30;99.90;;;;;;4938518;29;20849;-95
2021/10/23 00:25:09;;;;;;;0.40;0.30;;;7.40;99.90;;;;;;4939430;29;20555;-96
2021/10/23 00:27:36;;;;;;;0.30;0.30;;;7.30;99.90;;;;;;4937905;29;20553;-95
2021/10/23 00:30:03;;;;;;;0.30;0.30;;;7.40;99.90;;;;;;4938929;29;20495;-96
2021/10/23 00:32:30;;;;;;;0.40;0.40;;;7.30;99.90;;;;;;4938388;29;20478;-96
2021/10/23 00:34:57;;;;;;;0.30;0.30;;;7.40;99.90;;;;;;4939858;29;20465;-96
2021/10/23 00:37:25;;;;;;;0.30;0.30;;;7.40;99.90;;;;;;4939287;29;20818;-95
2021/10/23 00:39:52;;;;;;;0.30;0.30;;;7.30;99.90;;;;;;4938588;29;20953;-95
2021/10/23 00:42:19;;;;;;;0.30;0.20;;;7.30;99.90;;;;;;4938426;29;20475;-96
2021/10/23 00:44:46;;;;;;;0.40;0.30;;;7.30;99.90;;;;;;4938649;29;20448;-95
2021/10/23 00:47:16;;;;;;;0.30;0.20;;;7.40;99.90;;;;;;4938121;29;20470;-85
2021/10/23 00:49:43;;;;;;;0.30;0.20;;;7.30;99.90;;;;;;4936080;29;20475;-85
2021/10/23 00:52:10;;;;;;;0.30;0.30;;;7.30;99.90;;;;;;4935974;29;20490;-86
2021/10/23 00:54:39;;;;;;;0.63;0.63;;;7.30;99.90;;;;;;4936030;29;20455;-80
2021/10/23 00:57:06;;;;;;;0.30;0.30;;;7.40;99.90;;;;;;4935910;29;20498;-80
2021/10/23 00:59:33;;;;;;;0.40;0.30;;;7.40;99.90;;;;;;4935641;29;20458;-80
2021/10/23 01:02:01;;;;;;;0.90;0.30;;;7.30;99.90;;;;;;4935906;29;20475;-80
2021/10/23 01:04:28;;;;;;;0.50;0.50;;;7.30;99.90;;;;;;4935917;29;20463;-80
2021/10/23 01:06:55;;;;;;;0.40;0.30;;;7.30;99.90;;;;;;4935910;29;20463;-80
2021/10/23 01:09:23;;;;;;;0.30;0.27;;;7.40;99.90;;;;;;4935723;29;20558;-80
2021/10/23 01:11:53;;;;;;;0.30;0.30;;;7.40;99.90;;;;;;4935497;29;20987;-80
2021/10/23 01:14:22;;;;;;;0.30;0.30;;;7.40;99.90;;;;;;4935854;29;20455;-80
2021/10/23 01:16:50;;;;;;;0.30;0.20;;;7.40;99.90;;;;;;4936085;29;20494;-80
2021/10/23 01:19:17;;;;;;;0.30;0.30;;;7.50;99.90;;;;;;4935711;29;20420;-80
2021/10/23 01:21:47;;;;;;;0.30;0.20;;;7.50;99.90;;;;;;4939089;29;20469;-80
2021/10/23 01:24:14;;;;;;;0.30;0.30;;;7.40;99.90;;;;;;4939718;29;20520;-80
2021/10/23 01:26:41;;;;;;;0.30;0.20;;;7.50;99.90;;;;;;4939342;29;20463;-80
2021/10/23 01:29:12;;;;;;;0.30;0.30;;;7.50;99.90;;;;;;4938806;29;20851;-80
2021/10/23 01:31:39;;;;;;;0.70;0.67;;;7.50;99.90;;;;;;4939063;29;20526;-80
2021/10/23 01:34:14;;;;;;;0.30;0.20;;;7.50;99.90;;;;;;4939051;29;20462;-80
2021/10/23 01:36:48;;;;;;;0.30;0.20;;;7.50;99.90;;;;;;4939222;29;20431;-80
2021/10/23 01:39:15;;;;;;;0.40;0.33;;;7.50;99.90;;;;;;4939355;29;20446;-80
2021/10/23 01:41:42;;;;;;;0.97;0.37;;;7.50;99.90;;;;;;4942235;29;20475;-85
2021/10/23 01:44:11;;;;;;;0.30;0.20;;;7.50;99.90;;;;;;4942137;29;20455;-85
2021/10/23 01:46:38;;;;;;;0.30;0.23;;;7.50;99.90;;;;;;4939212;29;20477;-86
2021/10/23 01:49:06;;;;;;;0.40;0.30;;;7.50;99.90;;;;;;4938819;29;20959;-86
2021/10/23 01:51:33;;;;;;;0.30;0.20;;;7.60;99.90;;;;;;4942491;29;20849;-95
2021/10/23 01:54:04;;;;;;;0.50;0.50;;;7.50;99.90;;;;;;4943477;29;20453;-95
2021/10/23 01:56:31;;;;;;;0.30;0.20;;;7.50;99.90;;;;;;4942807;29;20440;-95
2021/10/23 01:58:57;;;;;;;0.40;0.40;;;7.50;99.90;;;;;;4941797;29;20458;-96
2021/10/23 02:01:25;;;;;;;1.27;0.30;;;7.50;99.90;;;;;;4940595;29;22076;-96
2021/10/23 02:03:51;;;;;;;0.40;0.37;;;7.50;99.90;;;;;;4940523;29;20553;-95
2021/10/23 02:06:19;;;;;;;0.40;0.30;;;7.50;99.90;;;;;;4940676;29;20467;-96
2021/10/23 02:08:45;;;;;;;3.80;0.50;;;7.60;99.90;;;;;;4940867;29;20459;-80
2021/10/23 02:11:13;;;;;;;0.30;0.30;;;7.60;99.90;;;;;;4938402;29;20483;-80
2021/10/23 02:13:40;;;;;;;0.57;0.57;;;7.60;99.90;;;;;;4938080;29;20824;-80
2021/10/23 02:16:08;;;;;;;0.40;0.37;;;7.60;99.90;;;;;;4938527;29;20482;-80
2021/10/23 02:18:35;;;;;;;0.30;0.30;;;7.60;99.90;;;;;;4937656;29;20494;-80
2021/10/23 02:21:02;;;;;;;0.30;0.20;;;7.60;99.90;;;;;;4938505;29;20447;-80
2021/10/23 02:23:28;;;;;;;0.30;0.20;;;7.50;99.90;;;;;;4938305;29;20482;-80
2021/10/23 02:25:55;;;;;;;0.30;0.30;;;7.60;99.90;;;;;;4937921;29;20439;-80
2021/10/23 02:28:23;;;;;;;0.37;0.33;;;7.60;99.90;;;;;;4938366;29;20447;-82
2021/10/23 02:30:50;;;;;;;0.77;0.77;;;7.60;99.90;;;;;;4937854;29;20482;-82
2021/10/23 02:33:16;;;;;;;0.30;0.30;;;7.60;99.90;;;;;;4937705;29;20502;-82
2021/10/23 02:35:43;;;;;;;0.40;0.30;;;7.60;99.90;;;;;;4937759;29;20443;-82
2021/10/23 02:38:11;;;;;;;0.30;0.20;;;7.60;99.90;;;;;;4938170;29;20796;-82
2021/10/23 02:40:38;;;;;;;0.30;0.30;;;7.60;99.90;;;;;;4938094;29;20456;-82
2021/10/23 02:43:05;;;;;;;0.77;0.30;;;7.60;99.90;;;;;;4937919;29;20475;-82
2021/10/23 02:45:34;;;;;;;0.30;0.20;;;7.60;99.90;;;;;;4938026;29;20455;-82
2021/10/23 02:48:00;;;;;;;0.30;0.20;;;7.60;99.90;;;;;;4937588;29;20455;-82
2021/10/23 02:50:27;;;;;;;0.30;0.30;;;7.60;99.90;;;;;;4937643;29;20510;-83
2021/10/23 02:52:54;;;;;;;1.27;0.30;;;7.60;99.90;;;;;;4937710;29;20476;-82
2021/10/23 02:55:21;;;;;;;0.30;0.20;;;7.50;99.90;;;;;;4937822;29;20451;-82
2021/10/23 02:57:48;;;;;;;0.37;0.27;;;7.50;99.90;;;;;;4937659;29;20513;-82
2021/10/23 03:00:15;;;;;;;0.30;0.30;;;7.50;99.90;;;;;;4937687;29;20822;-82
2021/10/23 03:02:45;;;;;;;0.30;0.30;;;7.60;99.90;;;;;;4937522;29;20474;-83
2021/10/23 03:05:12;;;;;;;0.30;0.20;;;7.60;99.90;;;;;;4937754;29;20436;-82
2021/10/23 03:07:38;;;;;;;0.40;0.30;;;7.50;99.90;;;;;;4937297;29;20455;-82
2021/10/23 03:10:06;;;;;;;0.30;0.30;;;7.60;99.90;;;;;;4938792;29;20487;-96
2021/10/23 03:12:32;;;;;;;0.30;0.30;;;7.60;99.90;;;;;;4939829;29;20983;-95
2021/10/23 03:14:59;;;;;;;0.40;0.30;;;7.60;99.90;;;;;;4938853;29;20451;-93
2021/10/23 03:17:26;;;;;;;0.37;0.30;;;7.60;99.90;;;;;;4938329;29;20495;-94
2021/10/23 03:19:56;;;;;;;0.30;0.20;;;7.60;99.90;;;;;;4938858;29;20950;-94
2021/10/23 03:22:23;;;;;;;0.40;0.40;;;7.60;99.90;;;;;;4939847;29;20836;-96
2021/10/23 03:24:50;;;;;;;0.40;0.30;;;7.60;99.90;;;;;;4939756;29;20451;-96
2021/10/23 03:27:18;;;;;;;0.40;0.33;;;7.60;99.90;;;;;;4939485;29;20927;-96
2021/10/23 03:29:47;;;;;;;0.30;0.20;;;7.60;99.90;;;;;;4939215;29;20483;-95
2021/10/23 03:32:13;;;;;;;0.70;0.70;;;7.60;99.90;;;;;;4938927;29;20479;-95
2021/10/23 03:34:40;;;;;;;0.40;0.30;;;7.60;99.90;;;;;;4939197;29;20459;-96
2021/10/23 03:37:08;;;;;;;1.03;0.27;;;7.60;99.90;;;;;;4937782;29;20822;-83
2021/10/23 03:39:35;;;;;;;0.30;0.30;;;7.60;99.90;;;;;;4936927;29;20455;-82
2021/10/23 03:42:02;;;;;;;0.83;0.40;;;7.60;99.90;;;;;;4936904;29;20858;-83
2021/10/23 03:44:29;;;;;;;0.60;0.40;;;7.60;99.90;;;;;;4935901;29;20462;-83
2021/10/23 03:46:55;;;;;;;0.30;0.30;;;7.60;99.90;;;;;;4936989;29;20452;-82
2021/10/23 03:49:22;;;;;;;0.40;0.30;;;7.60;99.90;;;;;;4936398;29;20966;-82
2021/10/23 03:51:49;;;;;;;0.30;0.20;;;7.60;99.90;;;;;;4936389;29;20894;-83
2021/10/23 03:54:17;;;;;;;0.30;0.20;;;7.60;99.90;;;;;;4936779;29;20459;-82
2021/10/23 03:56:44;;;;;;;0.30;0.20;;;7.60;99.90;;;;;;4936637;29;20462;-82
2021/10/23 03:59:10;;;;;;;0.30;0.20;;;7.70;99.90;;;;;;4936326;29;20978;-82
2021/10/23 04:01:37;;;;;;;0.30;0.30;;;7.70;99.90;;;;;;4936090;29;20908;-82
2021/10/23 04:04:04;;;;;;;0.40;0.30;;;7.60;99.90;;;;;;4936273;29;20444;-82
2021/10/23 04:06:31;;;;;;;0.30;0.30;;;7.70;99.90;;;;;;4936177;29;20802;-82
2021/10/23 04:08:58;;;;;;;0.30;0.30;;;7.70;99.90;;;;;;4936621;29;20423;-83
2021/10/23 04:11:26;;;;;;;0.37;0.27;;;7.70;99.90;;;;;;4936287;29;20494;-83
2021/10/23 04:13:52;;;;;;;0.30;0.20;;;7.70;99.90;;;;;;4936428;29;20459;-82
2021/10/23 04:16:19;;;;;;;0.30;0.30;;;7.80;99.90;;;;;;4935946;29;20954;-82
2021/10/23 04:18:46;;;;;;;1.03;0.50;;;7.80;99.90;;;;;;4935982;29;20487;-82
2021/10/23 04:21:13;;;;;;;0.40;0.40;;;7.80;99.90;;;;;;4936151;29;20462;-82
2021/10/23 04:23:41;;;;;;;0.30;0.30;;;7.80;99.90;;;;;;4936271;29;20486;-83
2021/10/23 04:26:07;;;;;;;0.40;0.40;;;7.80;99.90;;;;;;4935825;29;20455;-83
2021/10/23 04:28:35;;;;;;;0.77;0.77;;;7.70;99.90;;;;;;4936266;29;20463;-83
2021/10/23 04:31:02;;;;;;;0.73;0.60;;;7.70;99.90;;;;;;4935928;29;20478;-82
2021/10/23 04:33:29;;;;;;;0.30;0.20;;;7.80;99.90;;;;;;4936181;29;20477;-83
2021/10/23 04:35:56;;;;;;;0.30;0.30;;;7.70;99.90;;;;;;4936258;29;20454;-82
2021/10/23 04:38:24;;;;;;;0.30;0.20;;;7.70;99.90;;;;;;4936194;29;20458;-82
2021/10/23 04:40:51;;;;;;;0.30;0.20;;;7.70;99.90;;;;;;4936041;29;20447;-82
2021/10/23 04:43:17;;;;;;;0.30;0.20;;;7.70;99.90;;;;;;4935677;29;20857;-83
2021/10/23 04:45:45;;;;;;;0.47;0.30;;;7.70;99.90;;;;;;4936120;29;20454;-83
2021/10/23 04:48:12;;;;;;;0.30;0.20;;;7.70;99.90;;;;;;4936102;29;20463;-83
2021/10/23 04:50:39;;;;;;;0.30;0.30;;;7.70;99.90;;;;;;4935764;29;20478;-82
2021/10/23 04:53:06;;;;;;;0.50;0.30;;;7.60;99.90;;;;;;4936660;29;20494;-82
2021/10/23 04:55:33;;;;;;;0.40;0.30;;;7.60;99.90;;;;;;4937805;29;20450;-83
2021/10/23 04:57:59;;;;;;;0.30;0.30;;;7.60;99.90;;;;;;4939776;29;20457;-83
2021/10/23 05:00:26;;;;;;;0.30;0.30;;;7.60;99.90;;;;;;4939540;29;20956;-82
2021/10/23 05:02:54;;;;;;;0.30;0.20;;;7.60;99.90;;;;;;4939846;29;20507;-83
2021/10/23 05:05:21;;;;;;;0.30;0.30;;;7.60;99.90;;;;;;4939639;29;20455;-83
2021/10/23 05:07:48;;;;;;;0.30;0.20;;;7.60;99.90;;;;;;4939779;29;20459;-82
2021/10/23 05:10:15;;;;;;;0.30;0.20;;;7.60;99.90;;;;;;4939402;29;20998;-83
2021/10/23 05:12:41;;;;;;;0.30;0.23;;;7.50;99.90;;;;;;4939471;29;20471;-83
2021/10/23 05:15:09;;;;;;;0.30;0.30;;;7.50;99.90;;;;;;4939399;29;20443;-82
2021/10/23 05:17:36;;;;;;;0.30;0.20;;;7.50;99.90;;;;;;4939045;29;20494;-82
2021/10/23 05:20:05;;;;;;;0.30;0.30;;;7.50;99.90;;;;;;4939531;29;20455;-82
2021/10/23 05:22:33;;;;;;;0.30;0.30;;;7.50;99.90;;;;;;4939045;29;20474;-83
2021/10/23 05:25:00;;;;;;;0.50;0.50;;;7.50;99.90;;;;;;4939121;29;20454;-83
2021/10/23 05:27:27;;;;;;;0.40;0.30;;;7.50;99.90;;;;;;4939208;29;20443;-82
2021/10/23 05:29:54;;;;;;;0.30;0.20;;;7.50;99.90;;;;;;4939355;29;20451;-82
2021/10/23 05:32:20;;;;;;;0.30;0.30;;;7.40;99.90;;;;;;4938680;29;21014;-82
2021/10/23 05:34:47;;;;;;;0.30;0.20;;;7.40;99.90;;;;;;4938925;29;20951;-82
2021/10/23 05:37:16;;;;;;;0.30;0.20;;;7.40;99.90;;;;;;4939288;29;20465;-82
2021/10/23 05:39:43;;;;;;;0.30;0.23;;;7.40;99.90;;;;;;4938998;29;20443;-82
2021/10/23 05:42:09;;;;;;;0.30;0.20;;;7.30;99.90;;;;;;4938938;29;20814;-82
2021/10/23 05:44:36;;;;;;;0.40;0.40;;;7.30;99.90;;;;;;4938772;29;20447;-82
2021/10/23 05:47:04;;;;;;;0.30;0.30;;;7.30;99.90;;;;;;4939049;29;20455;-82
2021/10/23 05:49:31;;;;;;;0.30;0.30;;;7.30;99.90;;;;;;4939014;29;20880;-82
2021/10/23 05:51:57;;;;;;;0.83;0.30;;;7.20;99.90;;;;;;4938637;29;20517;-82
2021/10/23 05:54:26;;;;;;;0.50;0.40;;;7.20;99.90;;;;;;4938921;29;20478;-82
2021/10/23 05:56:52;;;;;;;0.60;0.40;;;7.20;99.90;;;;;;4938970;29;20466;-82
2021/10/23 05:59:21;;;;;;;0.30;0.30;;;7.20;99.90;;;;;;4938685;29;20951;-82
2021/10/23 06:01:56;;;;;;;0.30;0.30;;;7.20;99.90;;;;;;4938905;29;20527;-82
2021/10/23 06:04:22;;;;;;;0.40;0.30;;;7.10;99.90;;;;;;4938482;29;20911;-82
2021/10/23 06:06:49;;;;;;;0.30;0.30;;;7.10;99.90;;;;;;4937517;29;20458;-82
2021/10/23 06:09:16;;;;;;;0.30;0.30;;;7.10;99.90;;;;;;4939365;29;20802;-82
2021/10/23 06:11:44;;;;;;;0.87;0.30;;;7.00;99.90;;;;;;4938429;29;20487;-82
2021/10/23 06:14:10;;;;;;;0.30;0.30;;;7.00;99.90;;;;;;4938538;29;20459;-81
2021/10/23 06:16:37;;;;;;;0.30;0.27;;;7.00;99.90;;;;;;4938163;29;20451;-82
2021/10/23 06:19:04;;;;;;;0.30;0.27;;;7.00;99.90;;;;;;4938443;29;20432;-82
2021/10/23 06:21:31;;;;;;;0.30;0.30;;;7.00;99.90;;;;;;4938102;29;20485;-81
2021/10/23 06:23:57;;;;;;;0.30;0.30;;;7.00;99.90;;;;;;4938011;29;20446;-82
2021/10/23 06:26:24;;;;;;;0.33;0.27;;;7.00;99.90;;;;;;4938109;29;20453;-82
2021/10/23 06:28:52;;;;;;;0.40;0.33;;;7.00;99.90;;;;;;4938388;29;20631;-82
2021/10/23 06:31:19;;;;;;;0.67;0.30;;;7.10;99.90;;;;;;4938206;29;20482;-82
2021/10/23 06:33:46;;;;;;;0.30;0.23;;;7.10;99.90;;;;;;4938294;29;20510;-82
2021/10/23 06:36:12;;;;;;;0.30;0.30;;;7.10;99.90;;;;;;4937723;29;20834;-82
2021/10/23 06:38:39;;;;;;;22.53;1.00;;;7.20;99.90;;;;;;4938703;29;20456;-82
2021/10/23 06:41:06;;;;;;;0.30;0.30;;;7.20;99.90;;;;;;4938849;29;20451;-79
2021/10/23 06:43:32;;;;;;;0.30;0.30;;;7.20;99.90;;;;;;4937667;29;20447;-81
2021/10/23 06:46:00;;;;;;;0.30;0.30;;;7.20;99.90;;;;;;4938063;29;20455;-82
2021/10/23 06:48:27;;;;;;;0.40;0.40;;;7.20;99.90;;;;;;4937829;29;20447;-82
2021/10/23 06:50:54;;;;;;;0.40;0.30;;;7.30;99.90;;;;;;4937892;29;20491;-82
2021/10/23 06:53:21;;;;;;;0.30;0.20;;;7.30;99.90;;;;;;4940229;29;20467;-82
2021/10/23 06:55:47;;;;;;;0.30;0.20;;;7.30;99.90;;;;;;4937790;29;20459;-80
2021/10/23 06:58:14;;;;;;;0.30;0.20;;;7.30;99.90;;;;;;4937816;29;20451;-79
2021/10/23 07:00:41;;;;;;;0.33;0.27;;;7.30;99.90;;;;;;4937770;29;20447;-79
2021/10/23 07:03:09;;;;;;;0.30;0.30;;;7.30;99.90;;;;;;4937362;29;20482;-80
2021/10/23 07:05:36;;;;;;;0.30;0.30;;;7.30;99.90;;;;;;4937556;29;20506;-79
2021/10/23 07:08:03;;;;;;;0.90;0.47;;;7.20;99.90;;;;;;4937641;29;20529;-80
2021/10/23 07:10:30;;;;;;;0.40;0.30;;;7.30;99.90;;;;;;4937617;29;20462;-79
2021/10/23 07:12:58;;;;;;;3.43;1.03;;;7.30;99.90;;;;;;4937331;29;20475;-80
2021/10/23 07:15:24;;;;;;;0.30;0.20;;;7.30;99.90;;;;;;4937401;29;20798;-80
2021/10/23 07:17:51;;;;;;;0.30;0.30;;;7.30;99.90;;;;;;4936948;29;20475;-79
2021/10/23 07:20:19;;;;;;;0.30;0.30;;;7.30;99.90;;;;;;4937270;29;20448;-79
2021/10/23 07:22:46;;;;;;;0.30;0.20;;;7.40;99.90;;;;;;4937362;29;20474;-80
2021/10/23 07:25:13;;;;;;;0.30;0.30;;;7.50;99.90;;;;;;4937363;29;20470;-78
2021/10/23 07:27:39;;;;;;;0.30;0.30;;;7.50;99.90;;;;;;4936783;29;20784;-78
2021/10/23 07:30:09;;;;;;;0.30;0.30;;;7.50;99.90;;;;;;4936992;29;20451;-78
2021/10/23 07:32:36;;;;;;;0.30;0.30;;;7.60;99.90;;;;;;4936781;29;20498;-77
2021/10/23 07:35:03;;;;;;;0.30;0.20;;;7.60;99.90;;;;;;4936946;29;20462;-77
2021/10/23 07:37:33;;;;;;;0.40;0.30;;;7.60;99.90;;;;;;4936780;29;20808;-77
2021/10/23 07:40:00;;;;;;;2.07;0.80;;;7.80;99.90;;;;;;4936822;29;20478;-77
2021/10/23 07:42:27;;;;;;;0.30;0.30;;;7.80;99.90;;;;;;4936689;29;20994;-77
2021/10/23 07:44:54;;;;;;;0.30;0.27;;;7.90;99.90;;;;;;4936452;29;20454;-77
2021/10/23 07:47:21;;;;;;;0.40;0.40;;;7.90;99.90;;;;;;4936809;29;20462;-77
2021/10/23 07:49:47;;;;;;;0.30;0.20;;;7.90;99.90;;;;;;4936586;29;20446;-77
2021/10/23 07:52:15;;;;;;;0.40;0.40;;;8.00;99.90;;;;;;4936679;29;20499;-80
2021/10/23 07:54:43;;;;;;;0.30;0.30;;;8.10;99.90;;;;;;4936479;29;20999;-77
2021/10/23 07:57:10;;;;;;;0.30;0.30;;;8.10;99.90;;;;;;4936666;29;20447;-77
2021/10/23 07:59:37;;;;;;;0.30;0.30;;;8.20;99.90;;;;;;4936728;29;20568;-74
2021/10/23 08:02:04;;;;;;;0.37;0.30;;;8.30;99.90;;;;;;4936170;29;20474;-75
2021/10/23 08:04:31;;;;;;;0.30;0.30;;;8.40;99.90;;;;;;4936625;29;20447;-74
2021/10/23 08:07:00;;;;;;;0.30;0.30;;;8.70;99.90;;;;;;4936323;29;20439;-75
2021/10/23 08:09:27;;;;;;;0.30;0.30;;;8.90;99.90;;;;;;4936312;29;20439;-74
2021/10/23 08:11:55;;;;;;;0.40;0.40;;;9.00;99.90;;;;;;4936377;29;20495;-74
2021/10/23 08:14:21;;;;;;;0.73;0.60;;;9.20;99.90;;;;;;4936296;29;20446;-74
2021/10/23 08:16:48;;;;;;;0.30;0.30;;;9.30;99.90;;;;;;4936502;29;20457;-75
2021/10/23 08:19:15;;;;;;;0.30;0.20;;;9.40;99.90;;;;;;4936409;29;20435;-74
2021/10/23 08:21:43;;;;;;;0.40;0.30;;;9.60;99.90;;;;;;4936479;29;20467;-75
2021/10/23 08:24:10;;;;;;;0.50;0.40;;;9.70;99.90;;;;;;4936446;29;20442;-74
2021/10/23 08:26:37;;;;;;;0.30;0.30;;;9.70;99.90;;;;;;4936161;29;20542;-75
2021/10/23 08:29:05;;;;;;;0.40;0.30;;;9.70;99.90;;;;;;4935582;29;20416;-75
2021/10/23 08:31:32;;;;;;;0.60;0.37;;;9.70;99.90;;;;;;4935714;29;20863;-75
2021/10/23 08:34:00;;;;;;;1.40;1.33;;;9.80;99.90;;;;;;4936243;29;20435;-75
2021/10/23 08:36:26;;;;;;;0.40;0.40;;;9.90;99.90;;;;;;4935983;29;20431;-77
2021/10/23 08:38:54;;;;;;;0.30;0.30;;;9.90;99.90;;;;;;4936225;29;20446;-77
2021/10/23 08:41:21;;;;;;;0.40;0.40;;;10.00;99.90;;;;;;4936730;29;20458;-77
2021/10/23 08:43:48;;;;;;;0.40;0.33;;;10.20;99.90;;;;;;4936184;29;20435;-77
2021/10/23 08:46:22;;;;;;;0.30;0.30;;;10.30;99.90;;;;;;4936128;29;20793;-77
2021/10/23 08:48:50;;;;;;;2.60;0.70;;;10.50;99.90;;;;;;4936133;29;20447;-77
2021/10/23 08:51:17;;;;;;;0.40;0.40;;;10.70;99.90;;;;;;4935560;29;20923;-76
2021/10/23 08:53:44;;;;;;;0.40;0.30;;;10.90;99.90;;;;;;4935928;29;20431;-76
2021/10/23 08:56:12;;;;;;;0.30;0.30;;;11.20;99.90;;;;;;4935986;29;20431;-76
2021/10/23 08:58:40;;;;;;;0.33;0.30;;;11.80;99.90;;;;;;4935748;29;20427;-75
2021/10/23 09:01:10;;;;;;;0.40;0.30;;;12.50;99.90;;;;;;4935829;29;20463;-76
2021/10/23 09:03:40;;;;;;;0.30;0.30;;;13.60;99.90;;;;;;4935909;29;20438;-76
2021/10/23 09:06:11;;;;;;;0.40;0.40;;;15.40;99.90;;;;;;4935803;29;20436;-76
2021/10/23 09:08:38;;;;;;;0.40;0.30;;;17.30;99.90;;;;;;4935644;29;20946;-77
2021/10/23 09:11:05;;;;;;;1.70;0.50;;;19.20;99.90;;;;;;4935879;29;20435;-76
2021/10/23 09:13:34;;;;;;;0.33;0.33;;;20.60;97.90;;;;;;4935815;29;20474;-76
2021/10/23 09:16:16;;;;;;;0.70;0.70;;;21.60;90.50;;;;;;4935770;29;20514;-76
2021/10/23 09:18:45;;;;;;;0.87;0.67;;;21.00;86.80;;;;;;4935487;29;20494;-76
2021/10/23 09:21:20;;;;;;;0.53;0.53;;;20.90;84.30;;;;;;4935756;29;20842;-76
2021/10/23 09:23:47;;;;;;;1.23;0.40;;;20.50;81.90;;;;;;4935825;29;20443;-76
2021/10/23 09:26:30;;;;;;;0.50;0.40;;;20.60;83.00;;;;;;4936388;29;20451;-76
2021/10/23 09:29:13;;;;;;;0.60;0.50;;;21.00;82.60;;;;;;4935664;29;20435;-76
2021/10/23 09:31:44;;;;;;;0.40;0.30;;;21.50;78.10;;;;;;4933602;29;20238;-76
2021/10/23 09:34:13;;;;;;;0.50;0.40;;;21.80;75.90;;;;;;4935477;29;20659;-76
2021/10/23 09:36:48;;;;;;;0.70;0.70;;;21.90;76.00;;;;;;4935366;29;20198;-76
2021/10/23 09:39:29;;;;;;;0.82;0.82;;;22.00;75.20;;;;;;4935513;29;20254;-76
2021/10/23 09:42:20;;;;;;;0.77;0.47;;;21.30;73.10;;;;;;4937813;29;20229;-76
2021/10/23 09:45:01;;;;;;;0.50;0.50;;;20.60;76.60;;;;;;4924601;29;20206;-76
2021/10/23 09:47:30;;;;;;;0.50;0.50;;;20.20;75.70;;;;;;4939052;29;20206;-77
2021/10/23 09:50:12;;;;;;;0.90;0.47;;;19.90;76.00;;;;;;4939035;29;20459;-76
2021/10/23 09:52:55;;;;;;;0.47;0.47;;;20.10;73.20;;;;;;4938871;29;20496;-82
2021/10/23 09:55:22;;;;;;;0.70;0.60;;;20.50;72.30;;;;;;4937278;29;20462;-83
2021/10/23 09:58:06;;;;;;;0.60;0.60;;;20.70;71.30;;;;;;4938647;29;20951;-84
2021/10/23 10:00:34;;;;;;;0.70;0.70;;;21.40;70.00;;;;;;4939215;29;20451;-84
2021/10/23 10:03:01;;;;;;;0.50;0.50;;;21.70;70.90;;;;;;4938507;29;20816;-84
2021/10/23 10:05:33;;;;;;;0.40;0.30;;;22.40;67.30;;;;;;4938550;29;20540;-83
2021/10/23 10:08:01;;;;;;;0.87;0.50;;;23.20;62.80;;;;;;4938739;29;20962;-83
2021/10/23 10:10:28;;;;;;;0.40;0.40;;;23.70;59.60;;;;;;4938819;29;20212;-84
2021/10/23 10:12:55;;;;;;;0.40;0.40;;;23.50;60.40;;;;;;4938655;29;20230;-83
2021/10/23 10:15:22;;;;;;;0.40;0.35;;;22.80;62.90;;;;;;4938835;29;20229;-83
2021/10/23 10:17:50;;;;;;;2.50;0.73;;;22.10;63.60;;;;;;4938351;29;20736;-85
2021/10/23 10:20:16;;;;;;;1.23;0.70;;;21.20;63.00;;;;;;4938817;29;20202;-84
2021/10/23 10:22:52;;;;;;;0.70;0.60;;;20.00;64.80;;;;;;4938372;29;20219;-84
2021/10/23 10:25:21;;;;;;;0.70;0.40;;;18.90;66.40;;;;;;4938205;29;20978;-84
2021/10/23 10:27:49;;;;;;;0.40;0.40;;;17.80;69.30;;;;;;4938381;29;20821;-84
2021/10/23 10:30:24;;;;;;;0.50;0.40;;;17.00;71.20;;;;;;4938602;29;20549;-85
2021/10/23 10:32:53;;;;;;;0.87;0.50;;;16.20;73.90;;;;;;4937976;29;20500;-83
2021/10/23 10:38:39;;;;;;;0.80;0.50;;;15.50;77.40;;;;;;4935424;29;20492;-83
2021/10/23 10:44:12;;;;;;;0.40;0.40;;;15.40;74.40;;;;;;4938438;29;20407;-85
2021/10/23 10:47:17;;;;;;;0.40;0.30;;;15.50;76.30;;;;;;4938348;29;20462;-86
2021/10/23 10:49:50;;;;;;;0.40;0.33;;;15.40;75.90;;;;;;4937820;29;20496;-84
2021/10/23 10:53:02;;;;;;;0.40;0.40;;;15.40;77.40;;;;;;4937353;29;20487;-85
2021/10/23 10:55:39;;;;;;;0.63;0.30;;;15.40;78.00;;;;;;4937943;29;20795;-86
2021/10/23 10:58:06;;;;;;;0.70;0.40;;;15.20;78.30;;;;;;4938049;29;20463;-86
2021/10/23 11:01:12;;;;;;;1.53;0.40;;;14.90;81.40;;;;;;4937574;29;20922;-86
2021/10/23 11:03:43;;;;;;;0.40;0.40;;;14.80;83.20;;;;;;4937859;29;20439;-89
2021/10/23 11:06:58;;;;;;;1.13;0.50;;;14.60;84.10;;;;;;4937535;29;20499;-84
2021/10/23 11:09:47;;;;;;;0.40;0.40;;;14.30;85.00;;;;;;4937581;29;20490;-87
2021/10/23 11:12:28;;;;;;;0.30;0.30;;;13.90;85.60;;;;;;4937521;29;20494;-86
2021/10/23 11:14:55;;;;;;;0.30;0.30;;;13.60;87.60;;;;;;4937763;29;20442;-86
2021/10/23 11:17:22;;;;;;;0.30;0.30;;;13.40;87.20;;;;;;4937215;29;20840;-86
2021/10/23 11:19:51;;;;;;;1.63;0.40;;;13.20;88.60;;;;;;4937200;29;20826;-85
2021/10/23 11:22:20;;;;;;;0.40;0.40;;;13.00;90.20;;;;;;4937815;29;20847;-83
2021/10/23 11:24:48;;;;;;;1.23;0.50;;;12.90;90.90;;;;;;4937163;29;20466;-84
2021/10/23 11:27:38;;;;;;;0.30;0.30;;;12.80;91.70;;;;;;4937344;29;20459;-82
2021/10/23 11:30:20;;;;;;;0.40;0.30;;;12.90;91.20;;;;;;4937444;29;20447;-83
2021/10/23 11:32:54;;;;;;;0.30;0.30;;;12.90;90.50;;;;;;4937190;29;20542;-81
2021/10/23 11:35:29;;;;;;;0.97;0.40;;;12.80;90.50;;;;;;4937123;29;20975;-83
2021/10/23 11:37:56;;;;;;;0.40;0.30;;;12.70;90.70;;;;;;4937009;29;20439;-83
2021/10/23 11:40:23;;;;;;;0.77;0.40;;;12.70;90.80;;;;;;4937181;29;20436;-84
2021/10/23 11:42:52;;;;;;;0.60;0.40;;;12.60;91.40;;;;;;4937055;29;20463;-84
2021/10/23 11:45:21;;;;;;;0.30;0.30;;;12.60;91.50;;;;;;4936652;29;20447;-84
2021/10/23 11:47:50;;;;;;;0.47;0.33;;;12.50;91.00;;;;;;4936762;29;20420;-83
2021/10/23 11:50:22;;;;;;;0.40;0.30;;;12.40;90.80;;;;;;4936938;29;20486;-84
2021/10/23 11:52:50;;;;;;;0.40;0.40;;;12.30;91.10;;;;;;4936587;29;20502;-84
2021/10/23 11:55:35;;;;;;;0.30;0.30;;;12.20;91.90;;;;;;4936824;29;20446;-85
2021/10/23 11:58:05;;;;;;;1.03;1.03;;;12.10;91.80;;;;;;4937004;29;20458;-85
2021/10/23 12:00:35;;;;;;;0.40;0.40;;;12.10;90.90;;;;;;4936872;29;20427;-85
2021/10/23 12:03:04;;;;;;;0.40;0.30;;;11.90;90.50;;;;;;4936589;29;20471;-85
2021/10/23 12:05:43;;;;;;;0.40;0.40;;;12.00;91.30;;;;;;4936151;29;20876;-86
2021/10/23 12:08:16;;;;;;;0.50;0.37;;;12.20;92.70;;;;;;4936908;29;20475;-86
2021/10/23 12:11:03;;;;;;;0.30;0.30;;;12.30;92.70;;;;;;4936742;29;20867;-86
2021/10/23 12:13:42;;;;;;;1.50;0.30;;;12.40;93.00;;;;;;4936492;29;20541;-84
2021/10/23 12:16:11;;;;;;;0.80;0.30;;;12.40;93.40;;;;;;4936733;29;20431;-85
2021/10/23 12:18:40;;;;;;;0.43;0.30;;;12.40;93.60;;;;;;4936335;29;20494;-86
2021/10/23 12:21:12;;;;;;;0.37;0.30;;;12.50;93.10;;;;;;4936247;29;20439;-83
2021/10/23 12:23:47;;;;;;;1.03;0.40;;;12.60;93.10;;;;;;4936428;29;20435;-86
2021/10/23 12:26:15;;;;;;;0.40;0.30;;;12.40;92.90;;;;;;4936221;29;20930;-83
2021/10/23 12:29:04;;;;;;;0.40;0.33;;;12.30;92.60;;;;;;4936129;29;20903;-84
2021/10/23 12:31:55;;;;;;;0.30;0.30;;;12.10;93.80;;;;;;4936412;29;20482;-84
2021/10/23 12:34:23;;;;;;;0.93;0.80;;;12.00;91.90;;;;;;4936032;29;20983;-84
2021/10/23 12:36:50;;;;;;;0.40;0.30;;;11.80;91.90;;;;;;4935947;29;20446;-83
2021/10/23 12:39:19;;;;;;;0.30;0.20;;;11.80;92.30;;;;;;4936098;29;20435;-85
2021/10/23 12:41:46;;;;;;;0.30;0.30;;;11.80;91.70;;;;;;4936066;29;20483;-83
2021/10/23 12:44:16;;;;;;;0.40;0.30;;;11.80;92.00;;;;;;4936128;29;20487;-83
2021/10/23 12:46:43;;;;;;;0.40;0.40;;;11.90;91.30;;;;;;4936043;29;20498;-85
2021/10/23 12:49:09;;;;;;;0.30;0.30;;;11.90;90.00;;;;;;4936249;29;20439;-84
2021/10/23 12:51:36;;;;;;;0.40;0.37;;;12.00;89.90;;;;;;4936309;29;20471;-84
2021/10/23 12:54:04;;;;;;;4.03;0.40;;;11.90;87.80;;;;;;4936148;29;20503;-83
2021/10/23 12:56:31;;;;;;;0.30;0.30;;;11.90;87.80;;;;;;4936146;29;20788;-85
2021/10/23 12:58:58;;;;;;;0.67;0.43;;;11.90;87.40;;;;;;4936205;29;20436;-84
2021/10/23 13:01:26;;;;;;;0.40;0.40;;;11.80;86.80;;;;;;4935999;29;20435;-85
2021/10/23 13:03:53;;;;;;;3.50;0.33;;;11.80;88.40;;;;;;4936174;29;20439;-84
2021/10/23 13:06:20;;;;;;;0.60;0.40;;;11.90;87.50;;;;;;4936276;29;20439;-84
2021/10/23 13:08:47;;;;;;;0.30;0.30;;;11.90;87.80;;;;;;4935928;29;20450;-85